createdAt,value
2018-01-05T00:01:21.172Z,0
2018-01-05T00:02:21.929Z,0
2018-01-05T00:03:20.875Z,0
2018-01-05T00:04:21.722Z,0
2018-01-05T00:05:21.974Z,0
2018-01-05T00:06:20.378Z,0
2018-01-05T00:07:20.438Z,0
2018-01-05T00:08:22.558Z,0
2018-01-05T00:09:20.906Z,0
2018-01-05T00:10:22.004Z,0
2018-01-05T00:11:21.172Z,0
2018-01-05T00:12:21.240Z,0
2018-01-05T00:13:22.653Z,0
2018-01-05T00:14:22.558Z,0
2018-01-05T00:15:22.577Z,0
2018-01-05T00:16:22.905Z,0
2018-01-05T00:17:22.962Z,0
2018-01-05T00:18:22.962Z,0
2018-01-05T00:19:22.547Z,0
2018-01-05T00:20:22.761Z,0
2018-01-05T00:21:22.780Z,0
2018-01-05T00:22:22.353Z,0
2018-01-05T00:23:23.000Z,0
2018-01-05T00:24:22.923Z,0
2018-01-05T00:25:22.839Z,0
2018-01-05T00:26:21.236Z,0
2018-01-05T00:27:21.608Z,0
2018-01-05T00:28:21.843Z,0
2018-01-05T00:29:20.729Z,0
2018-01-05T00:30:22.542Z,0
2018-01-05T00:31:22.297Z,0
2018-01-05T00:32:21.726Z,0
2018-01-05T00:33:22.537Z,0
2018-01-05T00:34:22.041Z,0
2018-01-05T00:35:22.509Z,0
2018-01-05T00:36:22.640Z,0
2018-01-05T00:37:23.932Z,0
2018-01-05T00:38:23.039Z,0
2018-01-05T00:39:22.598Z,0
2018-01-05T00:40:21.783Z,0
2018-01-05T00:41:22.579Z,0
2018-01-05T00:42:23.884Z,0
2018-01-05T00:43:22.331Z,0
2018-01-05T00:44:22.794Z,0
2018-01-05T00:45:23.034Z,0
2018-01-05T00:46:23.806Z,0
2018-01-05T00:47:22.859Z,0
2018-01-05T00:48:22.766Z,0
2018-01-05T00:49:22.949Z,0
2018-01-05T00:50:22.868Z,0
2018-01-05T00:51:25.560Z,0
2018-01-05T00:52:24.992Z,0
2018-01-05T00:53:23.555Z,0
2018-01-05T00:54:24.034Z,0
2018-01-05T00:55:24.845Z,0
2018-01-05T00:56:23.580Z,0
2018-01-05T00:57:25.595Z,0
2018-01-05T00:58:25.356Z,0
2018-01-05T00:59:24.381Z,0
2018-01-05T01:00:29.127Z,0
2018-01-05T01:01:29.807Z,0
2018-01-05T01:02:29.573Z,0
2018-01-05T01:03:30.153Z,0
2018-01-05T01:04:30.293Z,0
2018-01-05T01:05:30.981Z,0
2018-01-05T01:06:30.539Z,0
2018-01-05T01:07:31.084Z,0
2018-01-05T01:08:31.193Z,0
2018-01-05T01:09:30.549Z,0
2018-01-05T01:10:31.295Z,0
2018-01-05T01:11:31.252Z,0
2018-01-05T01:12:31.689Z,0
2018-01-05T01:13:31.070Z,0
2018-01-05T01:14:31.265Z,0
2018-01-05T01:15:31.417Z,0
2018-01-05T01:16:31.126Z,0
2018-01-05T01:17:31.050Z,0
2018-01-05T01:18:31.959Z,0
2018-01-05T01:19:31.403Z,0
2018-01-05T01:20:31.804Z,0
2018-01-05T01:21:32.238Z,0
2018-01-05T01:22:32.053Z,0
2018-01-05T01:23:32.355Z,0
2018-01-05T01:24:32.728Z,0
2018-01-05T01:25:33.400Z,0
2018-01-05T01:26:33.178Z,0
2018-01-05T01:27:33.301Z,0
2018-01-05T01:28:33.347Z,0
2018-01-05T01:29:33.625Z,0
2018-01-05T01:30:33.783Z,0
2018-01-05T01:31:33.939Z,0
2018-01-05T01:32:34.015Z,0
2018-01-05T01:33:33.845Z,0
2018-01-05T01:34:33.955Z,0
2018-01-05T01:35:34.396Z,0
2018-01-05T01:36:34.190Z,0
2018-01-05T01:37:34.609Z,0
2018-01-05T01:38:34.767Z,0
2018-01-05T01:39:34.757Z,0
2018-01-05T01:40:35.064Z,0
2018-01-05T01:41:34.964Z,0
2018-01-05T01:42:35.259Z,0
2018-01-05T01:43:35.547Z,0
2018-01-05T01:44:36.057Z,0
2018-01-05T01:45:36.041Z,0
2018-01-05T01:46:36.293Z,0
2018-01-05T01:47:36.419Z,0
2018-01-05T01:48:36.347Z,0
2018-01-05T01:49:36.520Z,0
2018-01-05T01:50:36.620Z,0
2018-01-05T01:51:36.686Z,0
2018-01-05T01:52:37.336Z,0
2018-01-05T01:53:37.552Z,0
2018-01-05T01:54:37.401Z,0
2018-01-05T01:55:37.389Z,0
2018-01-05T01:56:38.113Z,0
2018-01-05T01:57:37.807Z,0
2018-01-05T01:58:38.039Z,0
2018-01-05T01:59:38.372Z,0
2018-01-05T02:00:38.342Z,0
2018-01-05T02:01:38.746Z,0
2018-01-05T02:02:38.173Z,0
2018-01-05T02:03:39.789Z,0
2018-01-05T02:04:39.261Z,0
2018-01-05T02:05:39.004Z,0
2018-01-05T02:06:40.062Z,0
2018-01-05T02:07:39.774Z,0
2018-01-05T02:08:39.642Z,0
2018-01-05T02:09:39.329Z,0
2018-01-05T02:10:39.934Z,0
2018-01-05T02:11:40.300Z,0
2018-01-05T02:12:40.573Z,0
2018-01-05T02:13:39.892Z,0
2018-01-05T02:14:40.515Z,0
2018-01-05T02:15:40.612Z,0
2018-01-05T02:16:40.742Z,0
2018-01-05T02:17:40.751Z,0
2018-01-05T02:18:40.604Z,0
2018-01-05T02:19:41.318Z,0
2018-01-05T02:20:41.769Z,0
2018-01-05T02:21:41.419Z,0
2018-01-05T02:22:41.327Z,0
2018-01-05T02:23:42.130Z,0
2018-01-05T02:24:41.835Z,0
2018-01-05T02:25:41.167Z,0
2018-01-05T02:26:41.733Z,0
2018-01-05T02:27:41.636Z,0
2018-01-05T02:28:41.893Z,0
2018-01-05T02:29:42.194Z,0
2018-01-05T02:30:42.234Z,0
2018-01-05T02:31:42.327Z,0
2018-01-05T02:32:42.349Z,0
2018-01-05T02:33:42.409Z,0
2018-01-05T02:34:42.170Z,0
2018-01-05T02:35:42.562Z,0
2018-01-05T02:36:43.195Z,0
2018-01-05T02:37:42.975Z,0
2018-01-05T02:38:43.272Z,0
2018-01-05T02:39:43.521Z,0
2018-01-05T02:40:44.242Z,0
2018-01-05T02:41:45.448Z,0
2018-01-05T02:42:44.374Z,0
2018-01-05T02:43:44.486Z,0
2018-01-05T02:44:43.450Z,0
2018-01-05T02:45:44.154Z,0
2018-01-05T02:46:44.306Z,0
2018-01-05T02:47:44.497Z,0
2018-01-05T02:48:46.194Z,0
2018-01-05T02:49:45.032Z,0
2018-01-05T02:50:45.076Z,0
2018-01-05T02:51:44.399Z,0
2018-01-05T02:52:45.790Z,0
2018-01-05T02:53:45.413Z,0
2018-01-05T02:54:45.227Z,0
2018-01-05T02:55:45.204Z,0
2018-01-05T02:56:45.211Z,0
2018-01-05T02:57:46.483Z,0
2018-01-05T02:58:45.934Z,0
2018-01-05T02:59:46.142Z,0
2018-01-05T03:00:46.544Z,0
2018-01-05T03:01:46.183Z,0
2018-01-05T03:02:46.453Z,0
2018-01-05T03:03:46.745Z,0
2018-01-05T03:04:46.659Z,0
2018-01-05T03:05:47.426Z,0
2018-01-05T03:06:47.889Z,0
2018-01-05T03:07:47.600Z,0
2018-01-05T03:08:47.486Z,0
2018-01-05T03:09:46.904Z,0
2018-01-05T03:10:47.534Z,0
2018-01-05T03:11:47.504Z,0
2018-01-05T03:12:47.612Z,0
2018-01-05T03:13:48.057Z,0
2018-01-05T03:14:47.568Z,0
2018-01-05T03:15:48.784Z,0
2018-01-05T03:16:47.564Z,0
2018-01-05T03:17:48.263Z,0
2018-01-05T03:18:48.966Z,0
2018-01-05T03:19:48.585Z,0
2018-01-05T03:20:48.433Z,0
2018-01-05T03:21:48.267Z,0
2018-01-05T03:22:48.369Z,0
2018-01-05T03:23:48.703Z,0
2018-01-05T03:24:49.424Z,0
2018-01-05T03:25:49.400Z,0
2018-01-05T03:26:49.513Z,0
2018-01-05T03:27:49.484Z,0
2018-01-05T03:28:48.978Z,0
2018-01-05T03:29:49.665Z,0
2018-01-05T03:30:49.719Z,0
2018-01-05T03:31:50.250Z,0
2018-01-05T03:32:50.394Z,0
2018-01-05T03:33:50.207Z,0
2018-01-05T03:34:50.316Z,0
2018-01-05T03:35:50.102Z,0
2018-01-05T03:36:50.510Z,0
2018-01-05T03:37:51.405Z,0
2018-01-05T03:38:50.137Z,0
2018-01-05T03:39:50.166Z,0
2018-01-05T03:40:50.569Z,0
2018-01-05T03:41:50.516Z,0
2018-01-05T03:42:50.765Z,0
2018-01-05T03:43:50.647Z,0
2018-01-05T03:44:51.520Z,0
2018-01-05T03:45:50.766Z,0
2018-01-05T03:46:52.676Z,0
2018-01-05T03:47:51.774Z,0
2018-01-05T03:48:51.724Z,0
2018-01-05T03:49:52.672Z,0
2018-01-05T03:50:51.475Z,0
2018-01-05T03:51:52.163Z,0
2018-01-05T03:52:52.272Z,0
2018-01-05T03:53:52.220Z,0
2018-01-05T03:54:52.008Z,0
2018-01-05T03:55:52.161Z,0
2018-01-05T03:56:52.914Z,0
2018-01-05T03:57:52.912Z,0
2018-01-05T03:58:52.817Z,0
2018-01-05T03:59:53.006Z,0
2018-01-05T04:00:52.857Z,0
2018-01-05T04:01:53.667Z,0
2018-01-05T04:02:53.723Z,0
2018-01-05T04:03:53.254Z,0
2018-01-05T04:04:53.777Z,0
2018-01-05T04:05:53.862Z,0
2018-01-05T04:06:53.848Z,0
2018-01-05T04:07:54.569Z,0
2018-01-05T04:08:54.323Z,0
2018-01-05T04:09:54.338Z,0
2018-01-05T04:10:54.877Z,0
2018-01-05T04:11:55.145Z,0
2018-01-05T04:12:55.171Z,0
2018-01-05T04:13:55.045Z,0
2018-01-05T04:14:55.366Z,0
2018-01-05T04:15:55.265Z,0
2018-01-05T04:16:55.051Z,0
2018-01-05T04:17:55.548Z,0
2018-01-05T04:18:56.260Z,0
2018-01-05T04:19:55.976Z,0
2018-01-05T04:20:56.897Z,0
2018-01-05T04:21:56.851Z,0
2018-01-05T04:22:57.124Z,0
2018-01-05T04:23:57.251Z,0
2018-01-05T04:24:58.205Z,0
2018-01-05T04:25:57.636Z,0
2018-01-05T04:26:57.173Z,0
2018-01-05T04:27:58.044Z,0
2018-01-05T04:28:57.872Z,0
2018-01-05T04:29:57.656Z,0
2018-01-05T04:30:58.168Z,0
2018-01-05T04:31:59.194Z,0
2018-01-05T04:32:58.781Z,0
2018-01-05T04:33:59.076Z,0
2018-01-05T04:34:59.089Z,0
2018-01-05T04:35:59.283Z,0
2018-01-05T04:36:59.764Z,0
2018-01-05T04:37:59.733Z,0
2018-01-05T04:38:59.121Z,0
2018-01-05T04:39:59.635Z,0
2018-01-05T04:40:59.467Z,0
2018-01-05T04:41:59.375Z,0
2018-01-05T04:42:59.313Z,0
2018-01-05T04:44:00.219Z,0
2018-01-05T04:45:00.286Z,0
2018-01-05T04:45:58.961Z,0
2018-01-05T04:47:00.037Z,0
2018-01-05T04:47:59.532Z,0
2018-01-05T04:49:00.816Z,0
2018-01-05T04:49:59.906Z,0
2018-01-05T04:50:59.698Z,0
2018-01-05T04:51:59.999Z,0
2018-01-05T04:53:00.517Z,0
2018-01-05T04:54:01.560Z,0
2018-01-05T04:55:00.951Z,0
2018-01-05T04:56:01.172Z,0
2018-01-05T04:57:01.751Z,0
2018-01-05T04:58:00.922Z,0
2018-01-05T04:59:01.679Z,0
2018-01-05T05:01:01.336Z,0
2018-01-05T05:02:01.916Z,0
2018-01-05T05:03:02.169Z,0
2018-01-05T05:04:01.777Z,0
2018-01-05T05:05:01.636Z,0
2018-01-05T05:06:01.114Z,0
2018-01-05T05:07:01.576Z,0
2018-01-05T05:08:02.084Z,0
2018-01-05T05:09:02.356Z,0
2018-01-05T05:10:01.591Z,0
2018-01-05T05:11:01.947Z,0
2018-01-05T05:12:01.915Z,0
2018-01-05T05:13:02.409Z,0
2018-01-05T05:14:03.148Z,0
2018-01-05T05:15:02.555Z,0
2018-01-05T05:16:02.276Z,0
2018-01-05T05:17:02.304Z,0
2018-01-05T05:18:02.945Z,0
2018-01-05T05:19:02.841Z,0
2018-01-05T05:20:03.125Z,0
2018-01-05T05:21:03.410Z,0
2018-01-05T05:22:03.626Z,0
2018-01-05T05:23:03.385Z,0
2018-01-05T05:24:03.184Z,0
2018-01-05T05:25:03.182Z,0
2018-01-05T05:26:03.974Z,0
2018-01-05T05:27:03.771Z,0
2018-01-05T05:28:03.989Z,0
2018-01-05T05:29:03.828Z,0
2018-01-05T05:30:03.452Z,0
2018-01-05T05:31:04.278Z,0
2018-01-05T05:32:04.858Z,0
2018-01-05T05:33:04.760Z,0
2018-01-05T05:34:04.299Z,0
2018-01-05T05:35:04.826Z,0
2018-01-05T05:36:04.784Z,0
2018-01-05T05:37:05.219Z,0
2018-01-05T05:38:05.690Z,0
2018-01-05T05:39:05.413Z,0
2018-01-05T05:40:05.996Z,0
2018-01-05T05:41:05.785Z,0
2018-01-05T05:42:05.987Z,0
2018-01-05T05:43:06.344Z,0
2018-01-05T05:44:06.323Z,0
2018-01-05T05:45:06.090Z,0
2018-01-05T05:46:06.375Z,0
2018-01-05T05:47:06.307Z,0
2018-01-05T05:48:07.306Z,0
2018-01-05T05:49:06.887Z,0
2018-01-05T05:50:07.463Z,0
2018-01-05T05:51:07.793Z,0
2018-01-05T05:52:07.220Z,0
2018-01-05T05:53:07.211Z,0
2018-01-05T05:54:07.653Z,0
2018-01-05T05:55:07.228Z,0
2018-01-05T05:56:07.185Z,0
2018-01-05T05:57:07.221Z,0
2018-01-05T05:58:07.238Z,0
2018-01-05T05:59:07.527Z,0
2018-01-05T06:00:22.388Z,0
2018-01-05T06:01:07.274Z,0
2018-01-05T06:02:07.671Z,0
2018-01-05T06:03:07.615Z,0
2018-01-05T06:04:07.390Z,0
2018-01-05T06:05:07.934Z,0
2018-01-05T06:06:08.256Z,0
2018-01-05T06:07:08.127Z,0
2018-01-05T06:08:08.440Z,0
2018-01-05T06:09:08.670Z,0
2018-01-05T06:10:09.279Z,0
2018-01-05T06:11:08.291Z,0
2018-01-05T06:12:07.949Z,0
2018-01-05T06:13:08.727Z,0
2018-01-05T06:14:08.713Z,0
2018-01-05T06:15:08.394Z,0
2018-01-05T06:16:08.919Z,0
2018-01-05T06:17:09.493Z,0
2018-01-05T06:18:09.204Z,0
2018-01-05T06:19:09.553Z,0
2018-01-05T06:20:09.489Z,0
2018-01-05T06:21:09.196Z,0
2018-01-05T06:22:09.628Z,0
2018-01-05T06:23:09.621Z,0
2018-01-05T06:24:10.013Z,0
2018-01-05T06:25:10.411Z,0
2018-01-05T06:26:10.786Z,0
2018-01-05T06:27:10.331Z,0
2018-01-05T06:28:11.224Z,0
2018-01-05T06:29:11.692Z,0
2018-01-05T06:30:11.249Z,0
2018-01-05T06:31:11.109Z,0
2018-01-05T06:32:11.207Z,0
2018-01-05T06:33:11.124Z,0
2018-01-05T06:34:11.228Z,0
2018-01-05T06:35:11.765Z,0
2018-01-05T06:36:10.951Z,0
2018-01-05T06:37:11.286Z,0
2018-01-05T06:38:10.773Z,0
2018-01-05T06:39:11.050Z,4
2018-01-05T06:40:11.737Z,0
2018-01-05T06:41:11.779Z,0
2018-01-05T06:42:11.296Z,4
2018-01-05T06:43:11.891Z,4
2018-01-05T06:44:11.761Z,0
2018-01-05T06:45:12.090Z,4
2018-01-05T06:46:12.250Z,4
2018-01-05T06:47:12.657Z,4
2018-01-05T06:48:12.921Z,4
2018-01-05T06:49:12.688Z,4
2018-01-05T06:50:13.539Z,4
2018-01-05T06:51:13.462Z,8
2018-01-05T06:52:13.452Z,8
2018-01-05T06:53:13.239Z,8
2018-01-05T06:54:14.134Z,8
2018-01-05T06:55:13.495Z,12
2018-01-05T06:56:14.010Z,16
2018-01-05T06:57:14.656Z,16
2018-01-05T06:58:16.344Z,16
2018-01-05T06:59:15.803Z,20
2018-01-05T07:00:29.747Z,24
2018-01-05T07:01:14.569Z,24
2018-01-05T07:02:15.453Z,28
2018-01-05T07:03:16.646Z,28
2018-01-05T07:04:15.225Z,36
2018-01-05T07:05:16.140Z,36
2018-01-05T07:06:15.744Z,40
2018-01-05T07:07:16.043Z,48
2018-01-05T07:08:16.418Z,48
2018-01-05T07:09:18.013Z,52
2018-01-05T07:10:16.145Z,56
2018-01-05T07:11:16.404Z,60
2018-01-05T07:12:16.113Z,64
2018-01-05T07:13:16.519Z,64
2018-01-05T07:14:17.287Z,68
2018-01-05T07:15:17.366Z,76
2018-01-05T07:16:17.019Z,80
2018-01-05T07:17:17.426Z,88
2018-01-05T07:18:17.068Z,100
2018-01-05T07:19:18.068Z,104
2018-01-05T07:20:17.671Z,108
2018-01-05T07:21:17.563Z,116
2018-01-05T07:22:18.288Z,124
2018-01-05T07:23:18.016Z,136
2018-01-05T07:24:18.326Z,148
2018-01-05T07:25:18.348Z,160
2018-01-05T07:26:18.548Z,176
2018-01-05T07:27:18.573Z,192
2018-01-05T07:28:19.063Z,212
2018-01-05T07:29:19.055Z,232
2018-01-05T07:30:19.236Z,248
2018-01-05T07:31:18.773Z,260
2018-01-05T07:32:18.946Z,268
2018-01-05T07:33:19.039Z,264
2018-01-05T07:34:19.752Z,268
2018-01-05T07:35:19.613Z,276
2018-01-05T07:36:19.505Z,260
2018-01-05T07:37:19.823Z,268
2018-01-05T07:38:20.309Z,284
2018-01-05T07:39:20.378Z,296
2018-01-05T07:40:21.100Z,304
2018-01-05T07:41:20.764Z,308
2018-01-05T07:42:20.127Z,320
2018-01-05T07:43:20.017Z,328
2018-01-05T07:44:20.604Z,352
2018-01-05T07:45:20.348Z,352
2018-01-05T07:46:20.638Z,372
2018-01-05T07:47:20.912Z,364
2018-01-05T07:48:20.761Z,376
2018-01-05T07:49:20.739Z,416
2018-01-05T07:50:20.931Z,456
2018-01-05T07:51:21.344Z,476
2018-01-05T07:52:20.575Z,480
2018-01-05T07:53:20.698Z,468
2018-01-05T07:54:21.123Z,488
2018-01-05T07:55:21.120Z,492
2018-01-05T07:56:21.170Z,464
2018-01-05T07:57:21.878Z,436
2018-01-05T07:58:22.500Z,440
2018-01-05T07:59:22.135Z,428
2018-01-05T08:00:27.697Z,404
2018-01-05T08:01:27.868Z,388
2018-01-05T08:02:27.654Z,384
2018-01-05T08:03:28.434Z,396
2018-01-05T08:04:27.374Z,440
2018-01-05T08:05:27.364Z,504
2018-01-05T08:06:27.366Z,536
2018-01-05T08:07:27.139Z,528
2018-01-05T08:08:27.757Z,492
2018-01-05T08:09:27.146Z,492
2018-01-05T08:10:27.955Z,532
2018-01-05T08:11:27.975Z,576
2018-01-05T08:12:27.730Z,588
2018-01-05T08:13:27.964Z,552
2018-01-05T08:14:28.231Z,572
2018-01-05T08:15:28.359Z,564
2018-01-05T08:16:28.578Z,528
2018-01-05T08:17:28.822Z,520
2018-01-05T08:18:28.868Z,540
2018-01-05T08:19:29.357Z,600
2018-01-05T08:20:29.311Z,568
2018-01-05T08:21:29.495Z,548
2018-01-05T08:22:29.758Z,540
2018-01-05T08:23:30.012Z,584
2018-01-05T08:24:30.754Z,628
2018-01-05T08:25:30.073Z,672
2018-01-05T08:26:30.523Z,720
2018-01-05T08:27:30.569Z,736
2018-01-05T08:28:31.000Z,776
2018-01-05T08:29:30.314Z,864
2018-01-05T08:30:30.731Z,936
2018-01-05T08:31:31.223Z,1068
2018-01-05T08:32:31.533Z,1224
2018-01-05T08:33:31.214Z,1212
2018-01-05T08:34:31.463Z,1264
2018-01-05T08:35:31.693Z,1284
2018-01-05T08:36:31.576Z,1436
2018-01-05T08:37:31.994Z,1564
2018-01-05T08:38:32.316Z,1836
2018-01-05T08:39:32.899Z,2028
2018-01-05T08:40:32.473Z,1860
2018-01-05T08:41:32.985Z,1576
2018-01-05T08:42:32.210Z,1524
2018-01-05T08:43:32.826Z,1472
2018-01-05T08:44:32.498Z,1464
2018-01-05T08:45:32.328Z,1388
2018-01-05T08:46:32.712Z,1304
2018-01-05T08:47:33.021Z,1312
2018-01-05T08:48:32.775Z,1240
2018-01-05T08:49:32.356Z,1132
2018-01-05T08:50:32.701Z,1180
2018-01-05T08:51:32.634Z,1164
2018-01-05T08:52:32.626Z,1188
2018-01-05T08:53:33.380Z,1004
2018-01-05T08:54:38.867Z,1028
2018-01-05T08:55:38.627Z,1072
2018-01-05T08:56:39.457Z,1000
2018-01-05T08:57:39.639Z,972
2018-01-05T08:58:39.948Z,964
2018-01-05T08:59:40.106Z,972
2018-01-05T09:00:39.525Z,1012
2018-01-05T09:01:39.751Z,1016
2018-01-05T09:02:39.801Z,1056
2018-01-05T09:03:40.726Z,1208
2018-01-05T09:04:40.950Z,1248
2018-01-05T09:05:39.704Z,1352
2018-01-05T09:06:40.499Z,1400
2018-01-05T09:07:39.984Z,1544
2018-01-05T09:08:39.131Z,1784
2018-01-05T09:09:40.040Z,1868
2018-01-05T09:10:39.489Z,1704
2018-01-05T09:11:39.424Z,1300
2018-01-05T09:12:40.533Z,1196
2018-01-05T09:13:40.658Z,1112
2018-01-05T09:14:40.419Z,1100
2018-01-05T09:15:41.960Z,1052
2018-01-05T09:16:41.522Z,1188
2018-01-05T09:17:41.220Z,1276
2018-01-05T09:18:40.753Z,1284
2018-01-05T09:19:40.559Z,1196
2018-01-05T09:20:41.155Z,1256
2018-01-05T09:21:40.338Z,1500
2018-01-05T09:22:41.120Z,1644
2018-01-05T09:23:40.773Z,2204
2018-01-05T09:24:41.020Z,2880
2018-01-05T09:25:40.898Z,3268
2018-01-05T09:26:40.221Z,3828
2018-01-05T09:27:42.035Z,3644
2018-01-05T09:28:42.917Z,3492
2018-01-05T09:29:43.512Z,3216
2018-01-05T09:30:42.395Z,2840
2018-01-05T09:31:41.764Z,2660
2018-01-05T09:32:43.396Z,3012
2018-01-05T09:33:42.230Z,3132
2018-01-05T09:34:41.620Z,3188
2018-01-05T09:35:40.795Z,3476
2018-01-05T09:36:41.813Z,3308
2018-01-05T09:37:40.957Z,3004
2018-01-05T09:38:41.160Z,2656
2018-01-05T09:39:41.702Z,2664
2018-01-05T09:40:41.431Z,2716
2018-01-05T09:41:41.618Z,2860
2018-01-05T09:42:42.401Z,2924
2018-01-05T09:43:43.319Z,2988
2018-01-05T09:44:43.453Z,2872
2018-01-05T09:45:43.054Z,2316
2018-01-05T09:46:42.758Z,1964
2018-01-05T09:47:42.831Z,1932
2018-01-05T09:48:43.652Z,1916
2018-01-05T09:49:43.551Z,1916
2018-01-05T09:50:44.083Z,1876
2018-01-05T09:51:43.805Z,1740
2018-01-05T09:52:43.689Z,1872
2018-01-05T09:53:43.493Z,2024
2018-01-05T09:54:43.346Z,2256
2018-01-05T09:55:43.650Z,2520
2018-01-05T09:56:43.795Z,2080
2018-01-05T09:57:44.579Z,1904
2018-01-05T09:58:43.798Z,1588
2018-01-05T09:59:43.585Z,1232
2018-01-05T10:00:44.766Z,1196
2018-01-05T10:01:43.450Z,1460
2018-01-05T10:02:44.170Z,1988
2018-01-05T10:03:44.538Z,2368
2018-01-05T10:04:44.090Z,2268
2018-01-05T10:05:45.188Z,2364
2018-01-05T10:06:45.110Z,2668
2018-01-05T10:07:44.368Z,3160
2018-01-05T10:08:45.372Z,3432
2018-01-05T10:09:45.148Z,3908
2018-01-05T10:10:44.843Z,3336
2018-01-05T10:11:44.772Z,3352
2018-01-05T10:12:45.161Z,3864
2018-01-05T10:13:45.117Z,4124
2018-01-05T10:14:46.352Z,3960
2018-01-05T10:15:44.876Z,3932
2018-01-05T10:16:46.173Z,3024
2018-01-05T10:17:46.282Z,2940
2018-01-05T10:18:46.311Z,3636
2018-01-05T10:19:46.396Z,4668
2018-01-05T10:20:45.648Z,3524
2018-01-05T10:21:45.247Z,3952
2018-01-05T10:22:45.028Z,3656
2018-01-05T10:23:44.985Z,3164
2018-01-05T10:24:44.861Z,3120
2018-01-05T10:25:45.142Z,3236
2018-01-05T10:26:46.275Z,3164
2018-01-05T10:27:45.610Z,3552
2018-01-05T10:28:45.115Z,4268
2018-01-05T10:29:46.610Z,3632
2018-01-05T10:30:47.301Z,3632
2018-01-05T10:31:46.685Z,3632
2018-01-05T10:32:45.022Z,3288
2018-01-05T10:33:46.350Z,2752
2018-01-05T10:34:45.350Z,2824
2018-01-05T10:35:46.049Z,3704
2018-01-05T10:36:45.261Z,3228
2018-01-05T10:37:44.903Z,3500
2018-01-05T10:38:45.191Z,4104
2018-01-05T10:39:45.017Z,4060
2018-01-05T10:40:45.932Z,5032
2018-01-05T10:41:46.155Z,4724
2018-01-05T10:42:45.871Z,3852
2018-01-05T10:43:45.443Z,3488
2018-01-05T10:44:45.718Z,3368
2018-01-05T10:45:45.973Z,3040
2018-01-05T10:46:45.412Z,3764
2018-01-05T10:47:45.611Z,4152
2018-01-05T10:48:46.204Z,3540
2018-01-05T10:49:45.846Z,2864
2018-01-05T10:50:47.333Z,3044
2018-01-05T10:51:46.036Z,2808
2018-01-05T10:52:47.013Z,3672
2018-01-05T10:53:47.927Z,4164
2018-01-05T10:54:47.849Z,3908
2018-01-05T10:55:47.449Z,3232
2018-01-05T10:56:46.769Z,4424
2018-01-05T10:57:47.978Z,4280
2018-01-05T10:58:48.082Z,4492
2018-01-05T10:59:48.542Z,3472
2018-01-05T11:00:47.549Z,2648
2018-01-05T11:01:47.989Z,2480
2018-01-05T11:02:47.768Z,3012
2018-01-05T11:03:48.287Z,2784
2018-01-05T11:04:48.248Z,2896
2018-01-05T11:05:47.813Z,2292
2018-01-05T11:06:48.116Z,2452
2018-01-05T11:07:48.424Z,2424
2018-01-05T11:08:49.023Z,2236
2018-01-05T11:09:48.946Z,2084
2018-01-05T11:10:48.591Z,2320
2018-01-05T11:11:48.875Z,2304
2018-01-05T11:12:48.456Z,2564
2018-01-05T11:13:48.815Z,2468
2018-01-05T11:14:48.975Z,2788
2018-01-05T11:15:49.128Z,2588
2018-01-05T11:16:48.321Z,2472
2018-01-05T11:17:48.719Z,2184
2018-01-05T11:18:48.705Z,1748
2018-01-05T11:19:48.279Z,1760
2018-01-05T11:20:49.167Z,1804
2018-01-05T11:21:48.760Z,1536
2018-01-05T11:22:49.327Z,1368
2018-01-05T11:23:48.946Z,1248
2018-01-05T11:24:50.010Z,1452
2018-01-05T11:25:49.469Z,1612
2018-01-05T11:26:49.756Z,1360
2018-01-05T11:27:51.052Z,1512
2018-01-05T11:28:49.414Z,1960
2018-01-05T11:29:49.672Z,1768
2018-01-05T11:30:49.898Z,2016
2018-01-05T11:31:49.612Z,1820
2018-01-05T11:32:49.953Z,1960
2018-01-05T11:33:50.430Z,2336
2018-01-05T11:34:50.111Z,2388
2018-01-05T11:35:50.542Z,2428
2018-01-05T11:36:50.041Z,2560
2018-01-05T11:37:50.145Z,3172
2018-01-05T11:38:51.141Z,2936
2018-01-05T11:39:51.013Z,2952
2018-01-05T11:40:51.209Z,2476
2018-01-05T11:41:51.246Z,3868
2018-01-05T11:42:51.627Z,4916
2018-01-05T11:43:51.683Z,5396
2018-01-05T11:44:51.811Z,4728
2018-01-05T11:45:51.808Z,4300
2018-01-05T11:46:52.076Z,4228
2018-01-05T11:47:52.095Z,4792
2018-01-05T11:48:52.506Z,3888
2018-01-05T11:49:52.819Z,3920
2018-01-05T11:50:53.179Z,3252
2018-01-05T11:51:52.968Z,3872
2018-01-05T11:52:53.112Z,4244
2018-01-05T11:53:53.847Z,4520
2018-01-05T11:54:53.325Z,4836
2018-01-05T11:55:53.757Z,5320
2018-01-05T11:56:54.141Z,5028
2018-01-05T11:57:54.080Z,5616
2018-01-05T11:58:53.811Z,4340
2018-01-05T11:59:54.230Z,4696
2018-01-05T12:00:54.276Z,4564
2018-01-05T12:01:54.025Z,4364
2018-01-05T12:02:54.399Z,4212
2018-01-05T12:03:54.953Z,4192
2018-01-05T12:04:54.806Z,4532
2018-01-05T12:05:55.246Z,4920
2018-01-05T12:06:55.542Z,4908
2018-01-05T12:07:55.030Z,5084
2018-01-05T12:08:55.492Z,4800
2018-01-05T12:09:55.601Z,4628
2018-01-05T12:10:56.096Z,4160
2018-01-05T12:11:56.115Z,3888
2018-01-05T12:12:56.118Z,3892
2018-01-05T12:13:56.777Z,3556
2018-01-05T12:14:56.454Z,3180
2018-01-05T12:15:57.431Z,2980
2018-01-05T12:16:56.898Z,3224
2018-01-05T12:17:57.146Z,3248
2018-01-05T12:18:57.246Z,2696
2018-01-05T12:19:58.231Z,2036
2018-01-05T12:20:57.782Z,1672
2018-01-05T12:21:57.719Z,1028
2018-01-05T12:22:58.279Z,928
2018-01-05T12:23:58.449Z,632
2018-01-05T12:24:58.621Z,564
2018-01-05T12:25:58.172Z,580
2018-01-05T12:26:58.133Z,716
2018-01-05T12:27:58.140Z,612
2018-01-05T12:28:59.006Z,876
2018-01-05T12:29:58.603Z,1040
2018-01-05T12:30:58.578Z,708
2018-01-05T12:31:58.895Z,844
2018-01-05T12:32:59.301Z,1632
2018-01-05T12:33:59.507Z,1368
2018-01-05T12:35:00.056Z,1124
2018-01-05T12:35:59.555Z,1132
2018-01-05T12:36:59.599Z,1400
2018-01-05T12:37:59.501Z,996
2018-01-05T12:38:59.899Z,880
2018-01-05T12:40:00.325Z,932
2018-01-05T12:41:00.671Z,992
2018-01-05T12:42:00.061Z,1220
2018-01-05T12:43:01.004Z,1284
2018-01-05T12:44:00.417Z,1232
2018-01-05T12:45:00.820Z,1032
2018-01-05T12:46:01.031Z,1216
2018-01-05T12:47:01.811Z,1388
2018-01-05T12:48:01.066Z,1568
2018-01-05T12:49:01.197Z,1576
2018-01-05T12:50:02.374Z,1632
2018-01-05T12:51:01.962Z,1704
2018-01-05T12:52:02.479Z,1608
2018-01-05T12:53:02.208Z,1380
2018-01-05T12:54:01.969Z,1240
2018-01-05T12:55:02.502Z,1200
2018-01-05T12:56:02.412Z,1412
2018-01-05T12:57:02.084Z,1788
2018-01-05T12:58:02.353Z,1864
2018-01-05T12:59:03.548Z,2196
2018-01-05T13:00:03.521Z,2652
2018-01-05T13:01:04.034Z,2752
2018-01-05T13:02:03.747Z,2352
2018-01-05T13:03:03.578Z,2132
2018-01-05T13:04:03.374Z,2200
2018-01-05T13:05:03.368Z,2172
2018-01-05T13:06:03.639Z,2192
2018-01-05T13:07:03.506Z,2256
2018-01-05T13:08:03.448Z,2280
2018-01-05T13:09:04.786Z,2468
2018-01-05T13:10:05.963Z,2284
2018-01-05T13:11:03.972Z,1976
2018-01-05T13:12:04.580Z,1872
2018-01-05T13:13:06.011Z,2096
2018-01-05T13:14:06.201Z,2012
2018-01-05T13:15:05.141Z,2024
2018-01-05T13:16:05.446Z,1580
2018-01-05T13:17:05.949Z,1628
2018-01-05T13:18:05.070Z,1680
2018-01-05T13:19:05.453Z,2068
2018-01-05T13:20:05.203Z,1656
2018-01-05T13:21:05.419Z,1716
2018-01-05T13:22:05.692Z,1892
2018-01-05T13:23:07.873Z,2232
2018-01-05T13:24:07.244Z,2044
2018-01-05T13:25:08.106Z,1808
2018-01-05T13:26:07.656Z,1680
2018-01-05T13:27:22.790Z,1384
2018-01-05T13:28:20.363Z,1456
2018-01-05T13:29:20.386Z,1676
2018-01-05T13:30:20.433Z,1464
2018-01-05T13:31:20.709Z,1504
2018-01-05T13:32:19.468Z,1416
2018-01-05T13:33:19.521Z,1232
2018-01-05T13:34:18.742Z,1156
2018-01-05T13:35:19.054Z,1140
2018-01-05T13:36:18.956Z,1168
2018-01-05T13:37:20.535Z,1176
2018-01-05T13:38:19.207Z,1276
2018-01-05T13:39:20.338Z,1244
2018-01-05T13:40:18.975Z,1180
2018-01-05T13:41:19.478Z,1060
2018-01-05T13:42:19.179Z,1156
2018-01-05T13:43:20.292Z,1416
2018-01-05T13:44:20.602Z,1524
2018-01-05T13:45:21.306Z,1440
2018-01-05T13:46:20.490Z,1368
2018-01-05T13:47:20.235Z,1424
2018-01-05T13:48:20.456Z,1324
2018-01-05T13:49:21.608Z,1220
2018-01-05T13:50:20.488Z,1116
2018-01-05T13:51:21.396Z,1040
2018-01-05T13:52:20.371Z,996
2018-01-05T13:53:19.664Z,924
2018-01-05T13:54:21.080Z,908
2018-01-05T13:55:20.497Z,840
2018-01-05T13:56:20.219Z,892
2018-01-05T13:57:20.631Z,1016
2018-01-05T13:58:21.463Z,1016
2018-01-05T13:59:20.440Z,1008
2018-01-05T14:00:21.577Z,968
2018-01-05T14:01:21.139Z,892
2018-01-05T14:02:21.713Z,796
2018-01-05T14:03:21.521Z,804
2018-01-05T14:04:21.041Z,780
2018-01-05T14:05:21.091Z,916
2018-01-05T14:06:21.318Z,1036
2018-01-05T14:07:21.519Z,1096
2018-01-05T14:08:22.197Z,1072